Comstock, Texas
Current Conditions -  °F | °C
As of 11:53 AM on Friday 28 Nov 2014 (Local Time) from KDRT Reporting Station
Scattered Clouds Scattered Clouds  
Wind Chill: 58°   Ceiling: Unl
Heat Index: 58°   Visibility: 10mi
Dew Point: 50°   Wind: 6mph
Humidity: 75%   Direction: 50°NE
Pressure: 30.24"   Gusts: NA
Location:  29.68°N, 101.17°W
Report Text: KDRT 281753Z AUTO 05005KT 10SM SCT010 14/10 A3024 RMK AO2 SLP235 T01440100 10144 20100 58015
Loading
Personal Weather Stations






























Interactive Weather Map New forecast layout! Learn more

10-Day Weather Forecast

Advertisements
Track Severe Weather on mobile